sensor_id;sensor_type;location;lat;lon;timestamp;temperature;humidity
54429;DHT22;40337;52.978;6.310;2023-02-22T00:00:26;8.60;99.90
54429;DHT22;40337;52.978;6.310;2023-02-22T00:03:25;8.60;99.90
54429;DHT22;40337;52.978;6.310;2023-02-22T00:05:56;8.60;99.90
54429;DHT22;40337;52.978;6.310;2023-02-22T00:08:29;8.50;99.90
54429;DHT22;40337;52.978;6.310;2023-02-22T00:11:00;8.60;99.90
54429;DHT22;40337;52.978;6.310;2023-02-22T00:13:27;8.50;99.90
54429;DHT22;40337;52.978;6.310;2023-02-22T00:15:54;8.50;99.90
54429;DHT22;40337;52.978;6.310;2023-02-22T00:18:20;8.50;99.90
54429;DHT22;40337;52.978;6.310;2023-02-22T00:20:46;8.50;99.90
54429;DHT22;40337;52.978;6.310;2023-02-22T00:23:21;8.60;99.90
54429;DHT22;40337;52.978;6.310;2023-02-22T00:25:49;8.50;99.90
54429;DHT22;40337;52.978;6.310;2023-02-22T00:28:16;8.50;99.90
54429;DHT22;40337;52.978;6.310;2023-02-22T00:30:42;8.60;99.90
54429;DHT22;40337;52.978;6.310;2023-02-22T00:33:09;8.60;99.90
54429;DHT22;40337;52.978;6.310;2023-02-22T00:35:35;8.60;99.90
54429;DHT22;40337;52.978;6.310;2023-02-22T00:38:01;8.50;99.90
54429;DHT22;40337;52.978;6.310;2023-02-22T00:40:33;8.60;99.90
54429;DHT22;40337;52.978;6.310;2023-02-22T00:43:00;8.60;99.90
54429;DHT22;40337;52.978;6.310;2023-02-22T00:45:28;8.60;99.90
54429;DHT22;40337;52.978;6.310;2023-02-22T00:47:55;8.60;99.90
54429;DHT22;40337;52.978;6.310;2023-02-22T00:50:22;8.60;99.90
54429;DHT22;40337;52.978;6.310;2023-02-22T00:52:48;8.60;99.90
54429;DHT22;40337;52.978;6.310;2023-02-22T00:55:20;8.50;99.90
54429;DHT22;40337;52.978;6.310;2023-02-22T00:57:46;8.60;99.90
54429;DHT22;40337;52.978;6.310;2023-02-22T01:00:20;8.60;99.90
54429;DHT22;40337;52.978;6.310;2023-02-22T01:02:48;8.50;99.90
54429;DHT22;40337;52.978;6.310;2023-02-22T01:05:19;8.50;99.90
54429;DHT22;40337;52.978;6.310;2023-02-22T01:07:45;8.50;99.90
54429;DHT22;40337;52.978;6.310;2023-02-22T01:10:12;8.50;99.90
54429;DHT22;40337;52.978;6.310;2023-02-22T01:12:38;8.60;99.90
54429;DHT22;40337;52.978;6.310;2023-02-22T01:15:06;8.60;99.90
54429;DHT22;40337;52.978;6.310;2023-02-22T01:17:35;8.50;99.90
54429;DHT22;40337;52.978;6.310;2023-02-22T01:20:01;8.50;99.90
54429;DHT22;40337;52.978;6.310;2023-02-22T01:22:28;8.50;99.90
54429;DHT22;40337;52.978;6.310;2023-02-22T01:24:54;8.50;99.90
54429;DHT22;40337;52.978;6.310;2023-02-22T01:27:19;8.50;99.90
54429;DHT22;40337;52.978;6.310;2023-02-22T01:29:47;8.40;99.90
54429;DHT22;40337;52.978;6.310;2023-02-22T01:32:13;8.40;99.90
54429;DHT22;40337;52.978;6.310;2023-02-22T01:34:39;8.40;99.90
54429;DHT22;40337;52.978;6.310;2023-02-22T01:37:04;8.40;99.90
54429;DHT22;40337;52.978;6.310;2023-02-22T01:39:33;8.40;99.90
54429;DHT22;40337;52.978;6.310;2023-02-22T01:41:59;8.40;99.90
54429;DHT22;40337;52.978;6.310;2023-02-22T01:44:34;8.40;99.90
54429;DHT22;40337;52.978;6.310;2023-02-22T01:47:01;8.40;99.90
54429;DHT22;40337;52.978;6.310;2023-02-22T01:49:51;8.40;99.90
54429;DHT22;40337;52.978;6.310;2023-02-22T01:52:18;8.40;99.90
54429;DHT22;40337;52.978;6.310;2023-02-22T01:54:54;8.40;99.90
54429;DHT22;40337;52.978;6.310;2023-02-22T01:57:24;8.40;99.90
54429;DHT22;40337;52.978;6.310;2023-02-22T01:59:54;8.30;99.90
54429;DHT22;40337;52.978;6.310;2023-02-22T02:02:21;8.30;99.90
54429;DHT22;40337;52.978;6.310;2023-02-22T02:04:51;8.30;99.90
54429;DHT22;40337;52.978;6.310;2023-02-22T02:07:19;8.40;99.90
54429;DHT22;40337;52.978;6.310;2023-02-22T02:12:22;8.30;99.90
54429;DHT22;40337;52.978;6.310;2023-02-22T02:14:48;8.30;99.90
54429;DHT22;40337;52.978;6.310;2023-02-22T02:17:16;8.30;99.90
54429;DHT22;40337;52.978;6.310;2023-02-22T02:20:09;8.30;99.90
54429;DHT22;40337;52.978;6.310;2023-02-22T02:22:49;8.30;99.90
54429;DHT22;40337;52.978;6.310;2023-02-22T02:43:21;8.30;99.90
54429;DHT22;40337;52.978;6.310;2023-02-22T02:48:44;8.30;99.90
54429;DHT22;40337;52.978;6.310;2023-02-22T02:51:12;8.30;99.90
54429;DHT22;40337;52.978;6.310;2023-02-22T02:53:42;8.40;99.90
54429;DHT22;40337;52.978;6.310;2023-02-22T02:56:09;8.40;99.90
54429;DHT22;40337;52.978;6.310;2023-02-22T02:58:49;8.30;99.90
54429;DHT22;40337;52.978;6.310;2023-02-22T03:01:47;8.30;99.90
54429;DHT22;40337;52.978;6.310;2023-02-22T03:13:28;8.30;99.90
54429;DHT22;40337;52.978;6.310;2023-02-22T03:16:13;8.30;99.90
54429;DHT22;40337;52.978;6.310;2023-02-22T03:18:54;8.20;99.90
54429;DHT22;40337;52.978;6.310;2023-02-22T03:21:29;8.20;99.90
54429;DHT22;40337;52.978;6.310;2023-02-22T03:24:12;8.30;99.90
54429;DHT22;40337;52.978;6.310;2023-02-22T03:26:44;8.20;99.90
54429;DHT22;40337;52.978;6.310;2023-02-22T03:29:12;8.20;99.90
54429;DHT22;40337;52.978;6.310;2023-02-22T03:31:46;8.20;99.90
54429;DHT22;40337;52.978;6.310;2023-02-22T03:34:22;8.20;99.90
54429;DHT22;40337;52.978;6.310;2023-02-22T03:37:07;8.10;99.90
54429;DHT22;40337;52.978;6.310;2023-02-22T03:39:40;8.10;99.90
54429;DHT22;40337;52.978;6.310;2023-02-22T03:42:09;8.10;99.90
54429;DHT22;40337;52.978;6.310;2023-02-22T03:44:37;8.10;99.90
54429;DHT22;40337;52.978;6.310;2023-02-22T03:47:08;8.10;99.90
54429;DHT22;40337;52.978;6.310;2023-02-22T03:49:42;8.10;99.90
54429;DHT22;40337;52.978;6.310;2023-02-22T03:52:10;8.10;99.90
54429;DHT22;40337;52.978;6.310;2023-02-22T03:54:38;8.10;99.90
54429;DHT22;40337;52.978;6.310;2023-02-22T03:57:09;8.10;99.90
54429;DHT22;40337;52.978;6.310;2023-02-22T03:59:36;8.10;99.90
54429;DHT22;40337;52.978;6.310;2023-02-22T04:02:02;8.10;99.90
54429;DHT22;40337;52.978;6.310;2023-02-22T04:04:28;8.10;99.90
54429;DHT22;40337;52.978;6.310;2023-02-22T04:06:53;8.10;99.90
54429;DHT22;40337;52.978;6.310;2023-02-22T04:09:19;8.10;99.90
54429;DHT22;40337;52.978;6.310;2023-02-22T04:11:45;8.10;99.90
54429;DHT22;40337;52.978;6.310;2023-02-22T04:14:11;8.10;99.90
54429;DHT22;40337;52.978;6.310;2023-02-22T04:16:37;8.10;99.90
54429;DHT22;40337;52.978;6.310;2023-02-22T04:19:02;8.10;99.90
54429;DHT22;40337;52.978;6.310;2023-02-22T04:21:28;8.10;99.90
54429;DHT22;40337;52.978;6.310;2023-02-22T04:23:53;8.10;99.90
54429;DHT22;40337;52.978;6.310;2023-02-22T04:26:19;8.10;99.90
54429;DHT22;40337;52.978;6.310;2023-02-22T04:28:44;8.10;99.90
54429;DHT22;40337;52.978;6.310;2023-02-22T04:31:10;8.10;99.90
54429;DHT22;40337;52.978;6.310;2023-02-22T04:33:36;8.10;99.90
54429;DHT22;40337;52.978;6.310;2023-02-22T04:36:01;8.10;99.90
54429;DHT22;40337;52.978;6.310;2023-02-22T04:38:27;8.10;99.90
54429;DHT22;40337;52.978;6.310;2023-02-22T04:40:53;8.10;99.90
54429;DHT22;40337;52.978;6.310;2023-02-22T04:43:19;8.10;99.90
54429;DHT22;40337;52.978;6.310;2023-02-22T04:45:45;8.00;99.90
54429;DHT22;40337;52.978;6.310;2023-02-22T04:48:10;8.10;99.90
54429;DHT22;40337;52.978;6.310;2023-02-22T04:50:36;8.00;99.90
54429;DHT22;40337;52.978;6.310;2023-02-22T04:53:02;8.00;99.90
54429;DHT22;40337;52.978;6.310;2023-02-22T04:55:28;8.00;99.90
54429;DHT22;40337;52.978;6.310;2023-02-22T04:57:55;7.90;99.90
54429;DHT22;40337;52.978;6.310;2023-02-22T05:00:21;7.90;99.90
54429;DHT22;40337;52.978;6.310;2023-02-22T05:02:47;7.90;99.90
54429;DHT22;40337;52.978;6.310;2023-02-22T05:05:19;7.90;99.90
54429;DHT22;40337;52.978;6.310;2023-02-22T05:07:46;7.90;99.90
54429;DHT22;40337;52.978;6.310;2023-02-22T05:10:12;7.90;99.90
54429;DHT22;40337;52.978;6.310;2023-02-22T05:12:38;7.90;99.90
54429;DHT22;40337;52.978;6.310;2023-02-22T05:15:05;7.90;99.90
54429;DHT22;40337;52.978;6.310;2023-02-22T05:17:30;7.90;99.90
54429;DHT22;40337;52.978;6.310;2023-02-22T05:19:56;7.90;99.90
54429;DHT22;40337;52.978;6.310;2023-02-22T05:22:21;7.80;99.90
54429;DHT22;40337;52.978;6.310;2023-02-22T05:24:47;7.80;99.90
54429;DHT22;40337;52.978;6.310;2023-02-22T05:27:12;7.80;99.90
54429;DHT22;40337;52.978;6.310;2023-02-22T05:29:38;7.90;99.90
54429;DHT22;40337;52.978;6.310;2023-02-22T05:32:04;7.90;99.90
54429;DHT22;40337;52.978;6.310;2023-02-22T05:34:31;7.90;99.90
54429;DHT22;40337;52.978;6.310;2023-02-22T05:36:56;7.90;99.90
54429;DHT22;40337;52.978;6.310;2023-02-22T05:39:22;7.90;99.90
54429;DHT22;40337;52.978;6.310;2023-02-22T05:41:47;7.90;99.90
54429;DHT22;40337;52.978;6.310;2023-02-22T05:44:13;7.90;99.90
54429;DHT22;40337;52.978;6.310;2023-02-22T05:46:39;7.80;99.90
54429;DHT22;40337;52.978;6.310;2023-02-22T05:49:04;7.80;99.90
54429;DHT22;40337;52.978;6.310;2023-02-22T05:51:30;7.80;99.90
54429;DHT22;40337;52.978;6.310;2023-02-22T05:53:55;7.80;99.90
54429;DHT22;40337;52.978;6.310;2023-02-22T05:56:26;7.80;99.90
54429;DHT22;40337;52.978;6.310;2023-02-22T05:58:53;7.80;99.90
54429;DHT22;40337;52.978;6.310;2023-02-22T06:01:19;7.70;99.90
54429;DHT22;40337;52.978;6.310;2023-02-22T06:03:46;7.70;99.90
54429;DHT22;40337;52.978;6.310;2023-02-22T06:06:12;7.70;99.90
54429;DHT22;40337;52.978;6.310;2023-02-22T06:08:37;7.70;99.90
54429;DHT22;40337;52.978;6.310;2023-02-22T06:11:03;7.70;99.90
54429;DHT22;40337;52.978;6.310;2023-02-22T06:13:28;7.70;99.90
54429;DHT22;40337;52.978;6.310;2023-02-22T06:15:54;7.70;99.90
54429;DHT22;40337;52.978;6.310;2023-02-22T06:18:20;7.70;99.90
54429;DHT22;40337;52.978;6.310;2023-02-22T06:20:45;7.70;99.90
54429;DHT22;40337;52.978;6.310;2023-02-22T06:23:11;7.70;99.90
54429;DHT22;40337;52.978;6.310;2023-02-22T06:25:36;7.60;99.90
54429;DHT22;40337;52.978;6.310;2023-02-22T06:28:02;7.60;99.90
54429;DHT22;40337;52.978;6.310;2023-02-22T06:30:29;7.60;99.90
54429;DHT22;40337;52.978;6.310;2023-02-22T06:32:55;7.60;99.90
54429;DHT22;40337;52.978;6.310;2023-02-22T06:35:21;7.50;99.90
54429;DHT22;40337;52.978;6.310;2023-02-22T06:37:47;7.50;99.90
54429;DHT22;40337;52.978;6.310;2023-02-22T06:40:14;7.50;99.90
54429;DHT22;40337;52.978;6.310;2023-02-22T06:42:39;7.50;99.90
54429;DHT22;40337;52.978;6.310;2023-02-22T06:45:06;7.50;99.90
54429;DHT22;40337;52.978;6.310;2023-02-22T06:47:32;7.50;99.90
54429;DHT22;40337;52.978;6.310;2023-02-22T06:49:58;7.50;99.90
54429;DHT22;40337;52.978;6.310;2023-02-22T06:52:25;7.50;99.90
54429;DHT22;40337;52.978;6.310;2023-02-22T06:54:51;7.50;99.90
54429;DHT22;40337;52.978;6.310;2023-02-22T06:57:17;7.50;99.90
54429;DHT22;40337;52.978;6.310;2023-02-22T06:59:43;7.40;99.90
54429;DHT22;40337;52.978;6.310;2023-02-22T07:02:12;7.50;99.90
54429;DHT22;40337;52.978;6.310;2023-02-22T07:04:37;7.50;99.90
54429;DHT22;40337;52.978;6.310;2023-02-22T07:07:03;7.50;99.90
54429;DHT22;40337;52.978;6.310;2023-02-22T07:09:28;7.50;99.90
54429;DHT22;40337;52.978;6.310;2023-02-22T07:11:54;7.50;99.90
54429;DHT22;40337;52.978;6.310;2023-02-22T07:14:20;7.50;99.90
54429;DHT22;40337;52.978;6.310;2023-02-22T07:16:46;7.50;99.90
54429;DHT22;40337;52.978;6.310;2023-02-22T07:19:11;7.40;99.90
54429;DHT22;40337;52.978;6.310;2023-02-22T07:21:37;7.40;99.90
54429;DHT22;40337;52.978;6.310;2023-02-22T07:24:03;7.40;99.90
54429;DHT22;40337;52.978;6.310;2023-02-22T07:26:29;7.40;99.90
54429;DHT22;40337;52.978;6.310;2023-02-22T07:28:54;7.40;99.90
54429;DHT22;40337;52.978;6.310;2023-02-22T07:31:20;7.50;99.90
54429;DHT22;40337;52.978;6.310;2023-02-22T07:33:46;7.50;99.90
54429;DHT22;40337;52.978;6.310;2023-02-22T07:36:12;7.50;99.90
54429;DHT22;40337;52.978;6.310;2023-02-22T07:38:42;7.50;99.90
54429;DHT22;40337;52.978;6.310;2023-02-22T07:41:08;7.50;99.90
54429;DHT22;40337;52.978;6.310;2023-02-22T07:43:34;7.50;99.90
54429;DHT22;40337;52.978;6.310;2023-02-22T07:46:00;7.50;99.90
54429;DHT22;40337;52.978;6.310;2023-02-22T07:48:28;7.60;99.90
54429;DHT22;40337;52.978;6.310;2023-02-22T07:50:55;7.60;99.90
54429;DHT22;40337;52.978;6.310;2023-02-22T07:53:23;7.60;99.90
54429;DHT22;40337;52.978;6.310;2023-02-22T07:55:50;7.60;99.90
54429;DHT22;40337;52.978;6.310;2023-02-22T07:58:18;7.70;99.90
54429;DHT22;40337;52.978;6.310;2023-02-22T08:00:44;7.70;99.90
54429;DHT22;40337;52.978;6.310;2023-02-22T08:03:14;7.80;99.90
54429;DHT22;40337;52.978;6.310;2023-02-22T08:05:43;7.80;99.90
54429;DHT22;40337;52.978;6.310;2023-02-22T08:08:10;7.90;99.90
54429;DHT22;40337;52.978;6.310;2023-02-22T08:10:35;7.90;99.90
54429;DHT22;40337;52.978;6.310;2023-02-22T08:13:02;7.90;99.90
54429;DHT22;40337;52.978;6.310;2023-02-22T08:15:32;8.00;99.90
54429;DHT22;40337;52.978;6.310;2023-02-22T08:18:00;8.00;99.90
54429;DHT22;40337;52.978;6.310;2023-02-22T08:20:26;8.00;99.90
54429;DHT22;40337;52.978;6.310;2023-02-22T08:22:53;8.00;99.90
54429;DHT22;40337;52.978;6.310;2023-02-22T08:25:20;8.00;99.90
54429;DHT22;40337;52.978;6.310;2023-02-22T08:27:46;8.10;99.90
54429;DHT22;40337;52.978;6.310;2023-02-22T08:30:16;8.00;99.90
54429;DHT22;40337;52.978;6.310;2023-02-22T08:32:42;8.00;99.90
54429;DHT22;40337;52.978;6.310;2023-02-22T08:35:07;8.10;99.90
54429;DHT22;40337;52.978;6.310;2023-02-22T08:37:33;8.10;99.90
54429;DHT22;40337;52.978;6.310;2023-02-22T08:39:58;8.10;99.90
54429;DHT22;40337;52.978;6.310;2023-02-22T08:42:24;8.20;99.90
54429;DHT22;40337;52.978;6.310;2023-02-22T08:44:49;8.10;99.90
54429;DHT22;40337;52.978;6.310;2023-02-22T08:47:15;8.20;99.90
54429;DHT22;40337;52.978;6.310;2023-02-22T08:49:40;8.20;99.90
54429;DHT22;40337;52.978;6.310;2023-02-22T08:52:07;8.20;99.90
54429;DHT22;40337;52.978;6.310;2023-02-22T08:54:32;8.30;99.90
54429;DHT22;40337;52.978;6.310;2023-02-22T08:56:58;8.30;99.90
54429;DHT22;40337;52.978;6.310;2023-02-22T08:59:24;8.40;99.90
54429;DHT22;40337;52.978;6.310;2023-02-22T09:01:49;8.40;99.90
54429;DHT22;40337;52.978;6.310;2023-02-22T09:04:15;8.40;99.90
54429;DHT22;40337;52.978;6.310;2023-02-22T09:06:41;8.40;99.90
54429;DHT22;40337;52.978;6.310;2023-02-22T09:09:07;8.40;99.90
54429;DHT22;40337;52.978;6.310;2023-02-22T09:11:33;8.50;99.90
54429;DHT22;40337;52.978;6.310;2023-02-22T09:13:58;8.60;99.90
54429;DHT22;40337;52.978;6.310;2023-02-22T09:16:24;8.60;99.90
54429;DHT22;40337;52.978;6.310;2023-02-22T09:18:49;8.70;99.90
54429;DHT22;40337;52.978;6.310;2023-02-22T09:21:15;8.70;99.90
54429;DHT22;40337;52.978;6.310;2023-02-22T09:23:40;8.70;99.90
54429;DHT22;40337;52.978;6.310;2023-02-22T09:26:09;8.70;99.90
54429;DHT22;40337;52.978;6.310;2023-02-22T09:28:35;8.70;99.90
54429;DHT22;40337;52.978;6.310;2023-02-22T09:31:01;8.70;99.90
54429;DHT22;40337;52.978;6.310;2023-02-22T09:33:26;8.60;99.90
54429;DHT22;40337;52.978;6.310;2023-02-22T09:35:52;8.70;99.90
54429;DHT22;40337;52.978;6.310;2023-02-22T09:38:20;8.60;99.90
54429;DHT22;40337;52.978;6.310;2023-02-22T09:41:07;8.70;99.90
54429;DHT22;40337;52.978;6.310;2023-02-22T09:46:38;8.60;99.90
54429;DHT22;40337;52.978;6.310;2023-02-22T09:49:35;8.60;99.90
54429;DHT22;40337;52.978;6.310;2023-02-22T09:52:17;8.60;99.90
54429;DHT22;40337;52.978;6.310;2023-02-22T09:54:48;8.60;99.90
54429;DHT22;40337;52.978;6.310;2023-02-22T09:57:23;8.60;99.90
54429;DHT22;40337;52.978;6.310;2023-02-22T10:02:45;8.60;99.90
54429;DHT22;40337;52.978;6.310;2023-02-22T10:05:18;8.60;99.90
54429;DHT22;40337;52.978;6.310;2023-02-22T10:07:57;8.60;99.90
54429;DHT22;40337;52.978;6.310;2023-02-22T10:10:27;8.60;99.90
54429;DHT22;40337;52.978;6.310;2023-02-22T10:13:38;8.60;99.90
54429;DHT22;40337;52.978;6.310;2023-02-22T10:16:33;8.60;99.90
54429;DHT22;40337;52.978;6.310;2023-02-22T10:19:19;8.60;99.90
54429;DHT22;40337;52.978;6.310;2023-02-22T10:25:00;8.70;99.90
54429;DHT22;40337;52.978;6.310;2023-02-22T10:27:31;8.70;99.90
54429;DHT22;40337;52.978;6.310;2023-02-22T10:30:13;8.70;99.90
54429;DHT22;40337;52.978;6.310;2023-02-22T10:32:44;8.70;99.90
54429;DHT22;40337;52.978;6.310;2023-02-22T10:35:25;8.80;99.90
54429;DHT22;40337;52.978;6.310;2023-02-22T10:37:56;8.80;99.90
54429;DHT22;40337;52.978;6.310;2023-02-22T10:40:24;8.90;99.90
54429;DHT22;40337;52.978;6.310;2023-02-22T10:42:59;8.90;99.90
54429;DHT22;40337;52.978;6.310;2023-02-22T10:45:30;8.90;99.90
54429;DHT22;40337;52.978;6.310;2023-02-22T10:48:04;9.00;99.90
54429;DHT22;40337;52.978;6.310;2023-02-22T10:50:34;9.00;99.90
54429;DHT22;40337;52.978;6.310;2023-02-22T10:53:01;9.10;99.90
54429;DHT22;40337;52.978;6.310;2023-02-22T10:55:26;9.30;99.90
54429;DHT22;40337;52.978;6.310;2023-02-22T10:58:00;9.40;99.90
54429;DHT22;40337;52.978;6.310;2023-02-22T11:03:13;9.50;99.90
54429;DHT22;40337;52.978;6.310;2023-02-22T11:05:41;9.60;99.90
54429;DHT22;40337;52.978;6.310;2023-02-22T11:10:39;9.70;99.90
54429;DHT22;40337;52.978;6.310;2023-02-22T11:13:23;9.60;99.90
54429;DHT22;40337;52.978;6.310;2023-02-22T11:15:53;9.60;99.90
54429;DHT22;40337;52.978;6.310;2023-02-22T11:18:25;9.50;99.90
54429;DHT22;40337;52.978;6.310;2023-02-22T11:20:59;9.50;99.90
54429;DHT22;40337;52.978;6.310;2023-02-22T11:23:25;9.50;99.90
54429;DHT22;40337;52.978;6.310;2023-02-22T11:26:03;9.50;99.90
54429;DHT22;40337;52.978;6.310;2023-02-22T11:28:30;9.50;99.90
54429;DHT22;40337;52.978;6.310;2023-02-22T11:31:19;9.50;99.90
54429;DHT22;40337;52.978;6.310;2023-02-22T11:36:33;9.60;99.90
54429;DHT22;40337;52.978;6.310;2023-02-22T11:39:04;9.60;99.90
54429;DHT22;40337;52.978;6.310;2023-02-22T11:41:32;9.70;99.90
54429;DHT22;40337;52.978;6.310;2023-02-22T11:46:54;9.80;99.90
54429;DHT22;40337;52.978;6.310;2023-02-22T11:49:23;9.80;99.90
54429;DHT22;40337;52.978;6.310;2023-02-22T11:57:50;10.10;99.90
54429;DHT22;40337;52.978;6.310;2023-02-22T12:03:48;10.30;99.90
54429;DHT22;40337;52.978;6.310;2023-02-22T12:06:27;10.60;99.90
54429;DHT22;40337;52.978;6.310;2023-02-22T12:17:09;10.90;99.90
54429;DHT22;40337;52.978;6.310;2023-02-22T12:19:48;11.00;99.90
54429;DHT22;40337;52.978;6.310;2023-02-22T12:22:35;11.10;99.90
54429;DHT22;40337;52.978;6.310;2023-02-22T12:25:17;11.20;99.90
54429;DHT22;40337;52.978;6.310;2023-02-22T12:27:48;11.30;99.90
54429;DHT22;40337;52.978;6.310;2023-02-22T12:30:36;11.10;99.90
54429;DHT22;40337;52.978;6.310;2023-02-22T12:33:14;11.10;99.90
54429;DHT22;40337;52.978;6.310;2023-02-22T12:35:47;11.10;99.90
54429;DHT22;40337;52.978;6.310;2023-02-22T12:38:34;11.00;99.90
54429;DHT22;40337;52.978;6.310;2023-02-22T12:44:01;10.90;99.90
54429;DHT22;40337;52.978;6.310;2023-02-22T12:46:30;10.90;99.90
54429;DHT22;40337;52.978;6.310;2023-02-22T12:49:25;10.80;99.90
54429;DHT22;40337;52.978;6.310;2023-02-22T12:59:56;10.90;99.90
54429;DHT22;40337;52.978;6.310;2023-02-22T13:02:38;10.80;99.90
54429;DHT22;40337;52.978;6.310;2023-02-22T13:05:05;10.80;99.90
54429;DHT22;40337;52.978;6.310;2023-02-22T13:10:30;10.80;99.90
54429;DHT22;40337;52.978;6.310;2023-02-22T13:15:44;10.70;99.90
54429;DHT22;40337;52.978;6.310;2023-02-22T13:18:41;10.60;99.90
54429;DHT22;40337;52.978;6.310;2023-02-22T13:23:47;10.60;99.90
54429;DHT22;40337;52.978;6.310;2023-02-22T13:28:58;10.60;99.90
54429;DHT22;40337;52.978;6.310;2023-02-22T13:31:39;10.40;99.90
54429;DHT22;40337;52.978;6.310;2023-02-22T13:34:33;10.40;99.90
54429;DHT22;40337;52.978;6.310;2023-02-22T13:43:04;10.30;99.90
54429;DHT22;40337;52.978;6.310;2023-02-22T13:51:45;10.20;99.90
54429;DHT22;40337;52.978;6.310;2023-02-22T13:54:19;10.20;99.90
54429;DHT22;40337;52.978;6.310;2023-02-22T13:56:48;10.10;99.90
54429;DHT22;40337;52.978;6.310;2023-02-22T13:59:32;10.20;99.90
54429;DHT22;40337;52.978;6.310;2023-02-22T14:01:59;10.10;99.90
54429;DHT22;40337;52.978;6.310;2023-02-22T14:06:54;10.00;99.90
54429;DHT22;40337;52.978;6.310;2023-02-22T14:09:43;10.00;99.90
54429;DHT22;40337;52.978;6.310;2023-02-22T14:12:46;10.00;99.90
54429;DHT22;40337;52.978;6.310;2023-02-22T14:15:17;10.00;99.90
54429;DHT22;40337;52.978;6.310;2023-02-22T14:17:57;10.00;99.90
54429;DHT22;40337;52.978;6.310;2023-02-22T14:20:37;10.00;99.90
54429;DHT22;40337;52.978;6.310;2023-02-22T14:23:31;10.00;99.90
54429;DHT22;40337;52.978;6.310;2023-02-22T14:26:28;10.00;99.90
54429;DHT22;40337;52.978;6.310;2023-02-22T14:29:01;10.10;99.90
54429;DHT22;40337;52.978;6.310;2023-02-22T14:31:28;10.10;99.90
54429;DHT22;40337;52.978;6.310;2023-02-22T14:33:56;10.10;99.90
54429;DHT22;40337;52.978;6.310;2023-02-22T14:42:29;10.10;99.90
54429;DHT22;40337;52.978;6.310;2023-02-22T14:50:32;10.10;99.90
54429;DHT22;40337;52.978;6.310;2023-02-22T14:53:03;10.10;99.90
54429;DHT22;40337;52.978;6.310;2023-02-22T14:55:36;10.10;99.90
54429;DHT22;40337;52.978;6.310;2023-02-22T14:58:17;10.20;99.90
54429;DHT22;40337;52.978;6.310;2023-02-22T15:00:46;10.20;99.90
54429;DHT22;40337;52.978;6.310;2023-02-22T15:05:44;10.20;99.90
54429;DHT22;40337;52.978;6.310;2023-02-22T15:08:14;10.20;99.90
54429;DHT22;40337;52.978;6.310;2023-02-22T15:10:49;10.30;99.90
54429;DHT22;40337;52.978;6.310;2023-02-22T15:13:22;10.30;99.90
54429;DHT22;40337;52.978;6.310;2023-02-22T15:15:56;10.30;99.90
54429;DHT22;40337;52.978;6.310;2023-02-22T15:21:06;10.30;99.90
54429;DHT22;40337;52.978;6.310;2023-02-22T15:23:47;10.30;99.90
54429;DHT22;40337;52.978;6.310;2023-02-22T15:26:32;10.20;99.90
54429;DHT22;40337;52.978;6.310;2023-02-22T15:29:00;10.20;99.90
54429;DHT22;40337;52.978;6.310;2023-02-22T15:31:32;10.10;99.90
54429;DHT22;40337;52.978;6.310;2023-02-22T15:34:09;10.10;99.90
54429;DHT22;40337;52.978;6.310;2023-02-22T15:36:35;10.00;99.90
54429;DHT22;40337;52.978;6.310;2023-02-22T15:39:00;10.00;99.90
54429;DHT22;40337;52.978;6.310;2023-02-22T15:41:32;10.00;99.90
54429;DHT22;40337;52.978;6.310;2023-02-22T15:44:05;9.90;99.90
54429;DHT22;40337;52.978;6.310;2023-02-22T15:46:31;9.90;99.90
54429;DHT22;40337;52.978;6.310;2023-02-22T15:49:26;9.80;99.90
54429;DHT22;40337;52.978;6.310;2023-02-22T15:52:08;9.80;99.90
54429;DHT22;40337;52.978;6.310;2023-02-22T15:54:42;9.80;99.90
54429;DHT22;40337;52.978;6.310;2023-02-22T15:57:11;9.70;99.90
54429;DHT22;40337;52.978;6.310;2023-02-22T15:59:42;9.70;99.90
54429;DHT22;40337;52.978;6.310;2023-02-22T16:02:27;9.70;99.90
54429;DHT22;40337;52.978;6.310;2023-02-22T16:05:13;9.70;99.90
54429;DHT22;40337;52.978;6.310;2023-02-22T16:07:46;9.70;99.90
54429;DHT22;40337;52.978;6.310;2023-02-22T16:10:30;9.70;99.90
54429;DHT22;40337;52.978;6.310;2023-02-22T16:13:07;9.70;99.90
54429;DHT22;40337;52.978;6.310;2023-02-22T16:15:33;9.60;99.90
54429;DHT22;40337;52.978;6.310;2023-02-22T16:18:25;9.60;99.90
54429;DHT22;40337;52.978;6.310;2023-02-22T16:21:05;9.50;99.90
54429;DHT22;40337;52.978;6.310;2023-02-22T16:23:41;9.50;99.90
54429;DHT22;40337;52.978;6.310;2023-02-22T16:26:27;9.40;99.90
54429;DHT22;40337;52.978;6.310;2023-02-22T16:28:56;9.40;99.90
54429;DHT22;40337;52.978;6.310;2023-02-22T16:31:27;9.30;99.90
54429;DHT22;40337;52.978;6.310;2023-02-22T16:33:54;9.30;99.90
54429;DHT22;40337;52.978;6.310;2023-02-22T16:36:22;9.30;99.90
54429;DHT22;40337;52.978;6.310;2023-02-22T16:38:48;9.20;99.90
54429;DHT22;40337;52.978;6.310;2023-02-22T16:41:16;9.20;99.90
54429;DHT22;40337;52.978;6.310;2023-02-22T16:43:45;9.20;99.90
54429;DHT22;40337;52.978;6.310;2023-02-22T16:46:11;9.20;99.90
54429;DHT22;40337;52.978;6.310;2023-02-22T16:48:41;9.10;99.90
54429;DHT22;40337;52.978;6.310;2023-02-22T16:51:25;9.10;99.90
54429;DHT22;40337;52.978;6.310;2023-02-22T16:53:53;9.10;99.90
54429;DHT22;40337;52.978;6.310;2023-02-22T16:56:23;9.10;99.90
54429;DHT22;40337;52.978;6.310;2023-02-22T16:58:51;9.00;99.90
54429;DHT22;40337;52.978;6.310;2023-02-22T17:01:18;9.00;99.90
54429;DHT22;40337;52.978;6.310;2023-02-22T17:03:44;9.00;99.90
54429;DHT22;40337;52.978;6.310;2023-02-22T17:06:10;8.90;99.90
54429;DHT22;40337;52.978;6.310;2023-02-22T17:08:40;8.90;99.90
54429;DHT22;40337;52.978;6.310;2023-02-22T17:11:07;8.80;99.90
54429;DHT22;40337;52.978;6.310;2023-02-22T17:13:32;8.80;99.90
54429;DHT22;40337;52.978;6.310;2023-02-22T17:16:00;8.70;99.90
54429;DHT22;40337;52.978;6.310;2023-02-22T17:18:26;8.70;99.90
54429;DHT22;40337;52.978;6.310;2023-02-22T17:20:55;8.60;99.90
54429;DHT22;40337;52.978;6.310;2023-02-22T17:23:21;8.60;99.90
54429;DHT22;40337;52.978;6.310;2023-02-22T17:25:52;8.60;99.90
54429;DHT22;40337;52.978;6.310;2023-02-22T17:28:19;8.60;99.90
54429;DHT22;40337;52.978;6.310;2023-02-22T17:30:44;8.60;99.90
54429;DHT22;40337;52.978;6.310;2023-02-22T17:33:15;8.60;99.90
54429;DHT22;40337;52.978;6.310;2023-02-22T17:35:41;8.60;99.90
54429;DHT22;40337;52.978;6.310;2023-02-22T17:38:08;8.60;99.90
54429;DHT22;40337;52.978;6.310;2023-02-22T17:40:38;8.70;99.90
54429;DHT22;40337;52.978;6.310;2023-02-22T17:43:05;8.70;99.90
54429;DHT22;40337;52.978;6.310;2023-02-22T17:45:34;8.70;99.90
54429;DHT22;40337;52.978;6.310;2023-02-22T17:48:01;8.70;99.90
54429;DHT22;40337;52.978;6.310;2023-02-22T17:50:27;8.80;99.90
54429;DHT22;40337;52.978;6.310;2023-02-22T17:52:55;8.80;99.90
54429;DHT22;40337;52.978;6.310;2023-02-22T17:55:21;8.80;99.90
54429;DHT22;40337;52.978;6.310;2023-02-22T17:57:51;8.70;99.90
54429;DHT22;40337;52.978;6.310;2023-02-22T18:00:17;8.70;99.90
54429;DHT22;40337;52.978;6.310;2023-02-22T18:03:08;8.70;99.90
54429;DHT22;40337;52.978;6.310;2023-02-22T18:05:39;8.70;99.90